sensor_id;sensor_type;location;lat;lon;timestamp;P1;durP1;ratioP1;P2;durP2;ratioP2
57301;SDS011;43149;50.974;18.224;2023-04-03T00:07:26;9.30;;;4.00;;
57301;SDS011;43149;50.974;18.224;2023-04-03T00:17:08;7.90;;;2.00;;
57301;SDS011;43149;50.974;18.224;2023-04-03T00:26:51;3.80;;;2.60;;
57301;SDS011;43149;50.974;18.224;2023-04-03T00:36:33;6.90;;;2.30;;
57301;SDS011;43149;50.974;18.224;2023-04-03T00:46:16;0.90;;;0.70;;
57301;SDS011;43149;50.974;18.224;2023-04-03T00:55:59;0.80;;;0.80;;
57301;SDS011;43149;50.974;18.224;2023-04-03T01:05:45;8.20;;;2.80;;
57301;SDS011;43149;50.974;18.224;2023-04-03T01:15:28;3.40;;;1.70;;
57301;SDS011;43149;50.974;18.224;2023-04-03T01:25:17;7.60;;;2.70;;
57301;SDS011;43149;50.974;18.224;2023-04-03T01:35:00;6.20;;;2.80;;
57301;SDS011;43149;50.974;18.224;2023-04-03T01:44:42;14.30;;;2.60;;
57301;SDS011;43149;50.974;18.224;2023-04-03T01:54:24;14.90;;;4.60;;
57301;SDS011;43149;50.974;18.224;2023-04-03T02:04:11;9.20;;;5.00;;
57301;SDS011;43149;50.974;18.224;2023-04-03T02:13:53;12.70;;;6.30;;
57301;SDS011;43149;50.974;18.224;2023-04-03T02:23:35;21.00;;;5.70;;
57301;SDS011;43149;50.974;18.224;2023-04-03T02:33:19;12.10;;;6.10;;
57301;SDS011;43149;50.974;18.224;2023-04-03T02:43:09;14.80;;;5.80;;
57301;SDS011;43149;50.974;18.224;2023-04-03T02:52:52;27.90;;;7.60;;
57301;SDS011;43149;50.974;18.224;2023-04-03T03:02:35;19.90;;;6.30;;
57301;SDS011;43149;50.974;18.224;2023-04-03T03:12:17;17.00;;;6.40;;
57301;SDS011;43149;50.974;18.224;2023-04-03T03:17:12;20.40;;;9.00;;
57301;SDS011;43149;50.974;18.224;2023-04-03T03:26:54;18.20;;;8.10;;
57301;SDS011;43149;50.974;18.224;2023-04-03T03:36:37;21.00;;;8.80;;
57301;SDS011;43149;50.974;18.224;2023-04-03T03:46:19;8.70;;;6.90;;
57301;SDS011;43149;50.974;18.224;2023-04-03T03:56:02;32.40;;;7.50;;
57301;SDS011;43149;50.974;18.224;2023-04-03T04:05:44;10.60;;;5.80;;
57301;SDS011;43149;50.974;18.224;2023-04-03T04:15:27;14.90;;;8.40;;
57301;SDS011;43149;50.974;18.224;2023-04-03T04:25:09;16.20;;;6.30;;
57301;SDS011;43149;50.974;18.224;2023-04-03T04:34:54;14.60;;;7.10;;
57301;SDS011;43149;50.974;18.224;2023-04-03T04:44:38;8.90;;;4.40;;
57301;SDS011;43149;50.974;18.224;2023-04-03T04:54:21;15.20;;;5.90;;
57301;SDS011;43149;50.974;18.224;2023-04-03T05:04:04;38.30;;;25.20;;
57301;SDS011;43149;50.974;18.224;2023-04-03T05:13:48;23.90;;;8.00;;
57301;SDS011;43149;50.974;18.224;2023-04-03T05:23:31;23.00;;;9.90;;
57301;SDS011;43149;50.974;18.224;2023-04-03T05:33:13;19.70;;;7.50;;
57301;SDS011;43149;50.974;18.224;2023-04-03T05:42:58;45.90;;;15.30;;
57301;SDS011;43149;50.974;18.224;2023-04-03T05:52:42;12.90;;;7.50;;
57301;SDS011;43149;50.974;18.224;2023-04-03T06:02:25;7.70;;;5.00;;
57301;SDS011;43149;50.974;18.224;2023-04-03T06:12:10;10.40;;;6.80;;
57301;SDS011;43149;50.974;18.224;2023-04-03T06:21:53;18.50;;;6.60;;
57301;SDS011;43149;50.974;18.224;2023-04-03T06:31:38;9.50;;;6.20;;
57301;SDS011;43149;50.974;18.224;2023-04-03T06:41:22;16.20;;;4.60;;
57301;SDS011;43149;50.974;18.224;2023-04-03T06:51:18;7.30;;;3.90;;
57301;SDS011;43149;50.974;18.224;2023-04-03T07:01:02;8.00;;;2.00;;
57301;SDS011;43149;50.974;18.224;2023-04-03T07:10:45;6.20;;;3.10;;
57301;SDS011;43149;50.974;18.224;2023-04-03T07:20:30;4.90;;;3.30;;
57301;SDS011;43149;50.974;18.224;2023-04-03T07:30:13;12.20;;;3.50;;
57301;SDS011;43149;50.974;18.224;2023-04-03T07:39:57;0.10;;;0.10;;
57301;SDS011;43149;50.974;18.224;2023-04-03T07:49:44;6.00;;;3.90;;
57301;SDS011;43149;50.974;18.224;2023-04-03T07:59:27;4.80;;;3.00;;
57301;SDS011;43149;50.974;18.224;2023-04-03T08:16:27;4.00;;;1.40;;
57301;SDS011;43149;50.974;18.224;2023-04-03T08:26:14;0.40;;;0.40;;
57301;SDS011;43149;50.974;18.224;2023-04-03T08:35:58;1.50;;;1.20;;
57301;SDS011;43149;50.974;18.224;2023-04-03T08:45:43;1.10;;;0.90;;
57301;SDS011;43149;50.974;18.224;2023-04-03T08:55:30;0.50;;;0.50;;
57301;SDS011;43149;50.974;18.224;2023-04-03T09:05:23;5.20;;;1.70;;
57301;SDS011;43149;50.974;18.224;2023-04-03T09:07:55;7.30;;;2.00;;
57301;SDS011;43149;50.974;18.224;2023-04-03T09:27:28;1.10;;;0.90;;
57301;SDS011;43149;50.974;18.224;2023-04-03T09:37:12;4.40;;;3.30;;
57301;SDS011;43149;50.974;18.224;2023-04-03T09:47:25;1.60;;;0.90;;
57301;SDS011;43149;50.974;18.224;2023-04-03T09:57:10;1.20;;;1.00;;
57301;SDS011;43149;50.974;18.224;2023-04-03T10:06:54;2.00;;;1.90;;
57301;SDS011;43149;50.974;18.224;2023-04-03T10:16:39;2.90;;;1.90;;
57301;SDS011;43149;50.974;18.224;2023-04-03T10:26:34;5.10;;;4.70;;
57301;SDS011;43149;50.974;18.224;2023-04-03T10:36:38;2.30;;;1.30;;
57301;SDS011;43149;50.974;18.224;2023-04-03T10:46:23;4.50;;;2.70;;
57301;SDS011;43149;50.974;18.224;2023-04-03T10:56:19;9.30;;;7.30;;
57301;SDS011;43149;50.974;18.224;2023-04-03T11:06:07;4.10;;;1.40;;
57301;SDS011;43149;50.974;18.224;2023-04-03T11:15:52;13.00;;;6.70;;
57301;SDS011;43149;50.974;18.224;2023-04-03T11:25:36;4.30;;;3.10;;
57301;SDS011;43149;50.974;18.224;2023-04-03T11:35:19;1.60;;;0.50;;
57301;SDS011;43149;50.974;18.224;2023-04-03T11:54:59;10.10;;;2.90;;
57301;SDS011;43149;50.974;18.224;2023-04-03T12:04:41;3.70;;;0.40;;
57301;SDS011;43149;50.974;18.224;2023-04-03T12:14:43;11.20;;;3.90;;
57301;SDS011;43149;50.974;18.224;2023-04-03T12:24:28;3.90;;;3.10;;
57301;SDS011;43149;50.974;18.224;2023-04-03T12:41:37;1.70;;;1.40;;
57301;SDS011;43149;50.974;18.224;2023-04-03T12:51:39;8.20;;;7.30;;
57301;SDS011;43149;50.974;18.224;2023-04-03T13:01:24;76.00;;;33.70;;
57301;SDS011;43149;50.974;18.224;2023-04-03T13:11:10;10.90;;;4.30;;
57301;SDS011;43149;50.974;18.224;2023-04-03T13:20:58;9.70;;;5.80;;
57301;SDS011;43149;50.974;18.224;2023-04-03T13:30:53;10.20;;;6.30;;
57301;SDS011;43149;50.974;18.224;2023-04-03T13:40:46;1.90;;;1.40;;
57301;SDS011;43149;50.974;18.224;2023-04-03T13:50:29;3.30;;;2.30;;
57301;SDS011;43149;50.974;18.224;2023-04-03T14:10:14;0.90;;;0.60;;
57301;SDS011;43149;50.974;18.224;2023-04-03T14:19:57;5.50;;;2.50;;
57301;SDS011;43149;50.974;18.224;2023-04-03T14:29:41;6.40;;;4.10;;
57301;SDS011;43149;50.974;18.224;2023-04-03T14:39:24;1.40;;;1.30;;
57301;SDS011;43149;50.974;18.224;2023-04-03T14:44:16;5.30;;;1.90;;
57301;SDS011;43149;50.974;18.224;2023-04-03T14:53:59;1.10;;;1.00;;
57301;SDS011;43149;50.974;18.224;2023-04-03T15:03:46;4.40;;;1.80;;
57301;SDS011;43149;50.974;18.224;2023-04-03T15:13:29;4.30;;;1.40;;
57301;SDS011;43149;50.974;18.224;2023-04-03T15:23:13;9.40;;;3.40;;
57301;SDS011;43149;50.974;18.224;2023-04-03T15:32:57;1.10;;;1.10;;
57301;SDS011;43149;50.974;18.224;2023-04-03T15:42:40;7.30;;;1.10;;
57301;SDS011;43149;50.974;18.224;2023-04-03T15:52:23;1.10;;;1.00;;
57301;SDS011;43149;50.974;18.224;2023-04-03T16:02:06;15.20;;;2.60;;
57301;SDS011;43149;50.974;18.224;2023-04-03T16:11:50;1.10;;;1.00;;
57301;SDS011;43149;50.974;18.224;2023-04-03T16:21:32;5.60;;;2.30;;
57301;SDS011;43149;50.974;18.224;2023-04-03T16:31:16;10.00;;;7.30;;
57301;SDS011;43149;50.974;18.224;2023-04-03T16:40:58;8.10;;;3.20;;
57301;SDS011;43149;50.974;18.224;2023-04-03T16:50:41;15.60;;;7.60;;
57301;SDS011;43149;50.974;18.224;2023-04-03T17:00:26;4.50;;;3.30;;
57301;SDS011;43149;50.974;18.224;2023-04-03T17:10:12;11.80;;;4.60;;
57301;SDS011;43149;50.974;18.224;2023-04-03T17:19:55;11.50;;;7.20;;
57301;SDS011;43149;50.974;18.224;2023-04-03T17:29:37;12.60;;;4.80;;
57301;SDS011;43149;50.974;18.224;2023-04-03T17:39:20;11.00;;;4.70;;
57301;SDS011;43149;50.974;18.224;2023-04-03T17:49:03;12.70;;;4.90;;
57301;SDS011;43149;50.974;18.224;2023-04-03T17:58:47;19.10;;;5.30;;
57301;SDS011;43149;50.974;18.224;2023-04-03T18:08:35;8.50;;;3.60;;
57301;SDS011;43149;50.974;18.224;2023-04-03T18:18:18;30.60;;;8.70;;
57301;SDS011;43149;50.974;18.224;2023-04-03T18:35:21;60.00;;;18.70;;
57301;SDS011;43149;50.974;18.224;2023-04-03T18:45:04;62.80;;;18.00;;
57301;SDS011;43149;50.974;18.224;2023-04-03T18:54:49;62.20;;;14.50;;
57301;SDS011;43149;50.974;18.224;2023-04-03T19:04:32;41.20;;;15.40;;
57301;SDS011;43149;50.974;18.224;2023-04-03T19:14:19;63.80;;;18.10;;
57301;SDS011;43149;50.974;18.224;2023-04-03T19:24:07;25.60;;;11.70;;
57301;SDS011;43149;50.974;18.224;2023-04-03T19:33:50;36.40;;;19.60;;
57301;SDS011;43149;50.974;18.224;2023-04-03T19:43:33;21.50;;;10.80;;
57301;SDS011;43149;50.974;18.224;2023-04-03T19:53:16;45.30;;;16.80;;
57301;SDS011;43149;50.974;18.224;2023-04-03T20:03:02;36.30;;;15.90;;
57301;SDS011;43149;50.974;18.224;2023-04-03T20:12:45;43.70;;;14.00;;
57301;SDS011;43149;50.974;18.224;2023-04-03T20:22:29;25.10;;;9.80;;
57301;SDS011;43149;50.974;18.224;2023-04-03T20:32:13;20.00;;;9.40;;
57301;SDS011;43149;50.974;18.224;2023-04-03T20:41:58;18.60;;;7.90;;
57301;SDS011;43149;50.974;18.224;2023-04-03T20:51:41;23.10;;;8.30;;
57301;SDS011;43149;50.974;18.224;2023-04-03T21:01:27;21.90;;;10.80;;
57301;SDS011;43149;50.974;18.224;2023-04-03T21:21:18;24.60;;;10.40;;
57301;SDS011;43149;50.974;18.224;2023-04-03T21:31:01;15.10;;;6.20;;
57301;SDS011;43149;50.974;18.224;2023-04-03T21:40:47;22.50;;;12.40;;
57301;SDS011;43149;50.974;18.224;2023-04-03T21:50:34;21.50;;;8.50;;
57301;SDS011;43149;50.974;18.224;2023-04-03T22:00:19;36.70;;;17.50;;
57301;SDS011;43149;50.974;18.224;2023-04-03T22:10:03;47.90;;;23.10;;
57301;SDS011;43149;50.974;18.224;2023-04-03T22:17:20;49.40;;;31.00;;
57301;SDS011;43149;50.974;18.224;2023-04-03T22:27:04;26.60;;;12.70;;
57301;SDS011;43149;50.974;18.224;2023-04-03T22:36:47;15.30;;;8.70;;
57301;SDS011;43149;50.974;18.224;2023-04-03T22:46:32;25.90;;;13.80;;
57301;SDS011;43149;50.974;18.224;2023-04-03T22:56:14;8.30;;;6.30;;
57301;SDS011;43149;50.974;18.224;2023-04-03T23:05:57;24.80;;;12.70;;
57301;SDS011;43149;50.974;18.224;2023-04-03T23:15:39;19.20;;;10.30;;
57301;SDS011;43149;50.974;18.224;2023-04-03T23:25:21;20.10;;;7.70;;
57301;SDS011;43149;50.974;18.224;2023-04-03T23:35:03;15.00;;;9.60;;
57301;SDS011;43149;50.974;18.224;2023-04-03T23:44:45;22.40;;;7.80;;
57301;SDS011;43149;50.974;18.224;2023-04-03T23:54:28;27.80;;;15.50;;
